FW2211 Weather Reports


Display with metric or nautical units.
time (UTC)temp
F
wind
direction
speed
MPH
gust
MPH
rain 1hr
in
rain 24hr
in
rain mn
in
humidity
%
barometer
mb
20190720011316 98 180 8.0 11.0 0.00 0.00 0.00 37 1006.4
20190720010316 98 180 8.0 13.0 0.00 0.00 0.00 37 1006.4
20190720005316 98 202 8.0 11.0 0.00 0.00 0.00 38 1006.3
20190720004316 99 225 10.0 14.0 0.00 0.00 0.00 37 1006.3
20190720003316 99 225 9.0 12.0 0.00 0.00 0.00 38 1006.2
20190720002316 99 202 11.0 14.0 0.00 0.00 0.00 38 1006.2
20190720001316 99 225 8.0 11.0 0.00 0.00 0.00 38 1006.1
20190720000316 99 225 10.0 13.0 0.00 0.00 0.00 39 1006.2
20190719235316 99 225 9.0 13.0 0.00 0.00 0.00 39 1006.2
20190719234316 100 202 8.0 11.0 0.00 0.00 0.00 39 1006.0
20190719233315 100 202 7.0 11.0 0.00 0.00 0.00 39 1006.2
20190719232315 100 202 9.0 14.0 0.00 0.00 0.00 39 1006.2
20190719231321 100 225 11.0 15.0 0.00 0.00 0.00 39 1006.2
20190719230315 100 202 8.0 14.0 0.00 0.00 0.00 39 1006.3
20190719225316 100 202 8.0 11.0 0.00 0.00 0.00 39 1006.4
20190719224316 100 225 10.0 12.0 0.00 0.00 0.00 40 1006.1
20190719223315 100 202 11.0 14.0 0.00 0.00 0.00 39 1006.3
20190719222316 101 180 8.0 11.0 0.00 0.00 0.00 40 1006.5
20190719221316 101 202 7.0 9.0 0.00 0.00 0.00 40 1006.6
20190719220316 101 202 8.0 11.0 0.00 0.00 0.00 40 1006.7
20190719215315 102 225 11.0 14.0 0.00 0.00 0.00 38 1007.0
20190719214316 102 202 11.0 14.0 0.00 0.00 0.00 38 1007.0
20190719213316 102 157 3.0 5.0 0.00 0.00 0.00 35 1007.0
20190719212316 102 225 11.0 15.0 0.00 0.00 0.00 35 1007.2
20190719211316 102 270 5.0 7.0 0.00 0.00 0.00 36 1007.2
20190719210315 102 270 1.0 2.0 0.00 0.00 0.00 36 1007.2
20190719205315 101 270 5.0 7.0 0.00 0.00 0.00 37 1007.3
20190719204315 100 247 3.0 4.0 0.00 0.00 0.00 38 1007.5
20190719203316 99 180 2.0 3.0 0.00 0.00 0.00 38 1007.6
20190719202315 98 202 2.0 3.0 0.00 0.00 0.00 39 1007.8
20190719201316 98 157 3.0 4.0 0.00 0.00 0.00 40 1008.0
20190719200316 97 157 1.0 1.0 0.00 0.00 0.00 41 1008.1
20190719195315 97 112 4.0 6.0 0.00 0.00 0.00 41 1008.2
20190719194315 97 45 4.0 6.0 0.00 0.00 0.00 41 1008.4
20190719193315 97 135 2.0 4.0 0.00 0.00 0.00 43 1008.5
20190719192315 96 112 1.0 2.0 0.00 0.00 0.00 43 1008.8
20190719191315 96 90 5.0 8.0 0.00 0.00 0.00 43 1008.8
20190719190316 97 0 3.0 6.0 0.00 0.00 0.00 43 1009.2
20190719185315 96 90 6.0 8.0 0.00 0.00 0.00 43 1009.4
20190719184315 96 45 2.0 3.0 0.00 0.00 0.00 45 1009.7
20190719183315 95 67 6.0 9.0 0.00 0.00 0.00 45 1009.6
20190719182315 95 67 4.0 5.0 0.00 0.00 0.00 45 1009.7
20190719181317 94 112 1.0 3.0 0.00 0.00 0.00 47 1009.8
20190719180317 94 90 3.0 6.0 0.00 0.00 0.00 47 1009.7
20190719175317 94 22 2.0 4.0 0.00 0.00 0.00 48 1009.7
20190719174317 93 67 3.0 8.0 0.00 0.00 0.00 48 1009.8
20190719173317 93 90 4.0 6.0 0.00 0.00 0.00 49 1009.8
20190719172317 93 67 2.0 3.0 0.00 0.00 0.00 49 1009.8
20190719171317 93 90 3.0 4.0 0.00 0.00 0.00 48 1009.7
20190719170317 93 135 2.0 4.0 0.00 0.00 0.00 47 1009.8
20190719165317 93 67 3.0 3.0 0.00 0.00 0.00 48 1009.8
20190719164317 92 67 2.0 3.0 0.00 0.00 0.00 47 1009.9
20190719163317 92 112 4.0 6.0 0.00 0.00 0.00 46 1009.7
20190719162317 92 67 3.0 4.0 0.00 0.00 0.00 47 1009.7
20190719161317 92 112 3.0 4.0 0.00 0.00 0.00 49 1009.6
20190719160317 91 90 5.0 7.0 0.00 0.00 0.00 50 1009.7
20190719155317 91 90 3.0 6.0 0.00 0.00 0.00 50 1009.7
20190719154317 91 90 6.0 7.0 0.00 0.00 0.00 52 1009.7
20190719153318 91 90 4.0 6.0 0.00 0.00 0.00 52 1009.7
20190719152317 91 90 3.0 4.0 0.00 0.00 0.00 53 1009.7
20190719151317 90 90 4.0 6.0 0.00 0.00 0.00 56 1009.7
20190719150317 90 45 4.0 6.0 0.00 0.00 0.00 56 1009.7
20190719145317 90 67 4.0 5.0 0.00 0.00 0.00 56 1009.6
20190719144317 90 45 6.0 8.0 0.00 0.00 0.00 55 1009.7
20190719143318 89 45 5.0 7.0 0.00 0.00 0.00 57 1009.7
20190719142317 88 22 4.0 6.0 0.00 0.00 0.00 58 1009.7
20190719141317 87 45 3.0 4.0 0.00 0.00 0.00 59 1009.5
20190719140316 87 22 3.0 4.0 0.00 0.00 0.00 61 1009.4
20190719135317 85 22 2.0 3.0 0.00 0.00 0.00 64 1009.3
20190719134316 85 0 2.0 3.0 0.00 0.00 0.00 65 1009.1
20190719133316 84 0 2.0 3.0 0.00 0.00 0.00 66 1008.7
20190719132317 83 0 2.0 3.0 0.00 0.00 0.00 67 1008.4
20190719131317 83 0 3.0 4.0 0.00 0.00 0.00 68 1008.3
20190719130316 83 0 3.0 3.0 0.00 0.00 0.00 69 1008.0
20190719125317 83 337 2.0 3.0 0.00 0.00 0.00 70 1007.8
20190719124316 83 0.0 0.0 0.00 0.00 0.00 70 1007.7
20190719123316 83 0.0 0.0 0.00 0.00 0.00 70 1007.6
20190719122316 83 225 2.0 2.0 0.00 0.00 0.00 70 1007.5
20190719121316 83 202 2.0 3.0 0.00 0.00 0.00 70 1007.4
20190719120318 84 157 1.0 2.0 0.00 0.00 0.00 69 1007.3
20190719115316 84 157 2.0 4.0 0.00 0.00 0.00 69 1007.4
20190719114316 84 157 4.0 5.0 0.00 0.00 0.00 69 1007.3
20190719113316 84 135 4.0 9.0 0.00 0.00 0.00 68 1007.3
20190719112316 83 135 5.0 8.0 0.00 0.00 0.00 68 1007.3
20190719111316 83 112 3.0 3.0 0.00 0.00 0.00 69 1007.4
20190719110316 83 112 3.0 4.0 0.00 0.00 0.00 69 1007.5
20190719105316 83 112 3.0 4.0 0.00 0.00 0.00 69 1007.5
20190719104316 84 112 3.0 4.0 0.00 0.00 0.00 69 1007.6
20190719103316 84 112 3.0 4.0 0.00 0.00 0.00 69 1007.7
20190719102316 84 112 2.0 3.0 0.00 0.00 0.00 69 1007.8
20190719101316 85 67 2.0 2.0 0.00 0.00 0.00 67 1008.1
20190719100316 85 0.0 1.0 0.00 0.00 0.00 66 1008.2
20190719095316 86 45 2.0 2.0 0.00 0.00 0.00 65 1008.4
20190719094316 86 45 1.0 3.0 0.00 0.00 0.00 65 1008.6
20190719093316 86 22 3.0 5.0 0.00 0.00 0.00 65 1008.8
20190719092316 85 45 2.0 3.0 0.00 0.00 0.00 67 1008.7
20190719091316 85 90 2.0 3.0 0.00 0.00 0.00 68 1008.7
20190719090317 85 67 2.0 3.0 0.00 0.00 0.00 69 1008.6
20190719085316 85 67 2.0 3.0 0.00 0.00 0.00 69 1008.7
20190719084316 84 67 1.0 2.0 0.00 0.00 0.00 69 1008.6
20190719083316 84 67 2.0 3.0 0.00 0.00 0.00 69 1008.6
20190719082316 84 90 3.0 4.0 0.00 0.00 0.00 68 1008.7
20190719081316 85 112 1.0 2.0 0.00 0.00 0.00 67 1008.6
20190719080316 85 112 1.0 2.0 0.00 0.00 0.00 66 1008.6
20190719075318 85 67 1.0 2.0 0.00 0.00 0.00 65 1008.8
20190719074316 85 67 1.0 1.0 0.00 0.00 0.00 65 1008.8
20190719073316 85 67 1.0 2.0 0.00 0.00 0.00 66 1008.9
20190719072316 85 67 1.0 1.0 0.00 0.00 0.00 66 1009.0
20190719071316 86 90 2.0 2.0 0.00 0.00 0.00 66 1008.9
20190719070315 86 112 2.0 2.0 0.00 0.00 0.00 66 1008.8
20190719065316 86 112 3.0 4.0 0.00 0.00 0.00 67 1008.5
20190719064317 86 135 2.0 3.0 0.00 0.00 0.00 66 1008.3
20190719063317 86 157 2.0 4.0 0.00 0.00 0.00 65 1008.3
20190719062316 86 135 2.0 3.0 0.00 0.00 0.00 65 1008.3
20190719061316 86 157 1.0 3.0 0.00 0.00 0.00 64 1008.2
20190719060316 86 135 1.0 2.0 0.00 0.00 0.00 64 1008.0
20190719055316 86 180 3.0 5.0 0.00 0.00 0.00 63 1008.1
20190719054316 86 157 1.0 2.0 0.00 0.00 0.00 62 1008.1
20190719053316 87 157 2.0 4.0 0.00 0.00 0.00 62 1008.1
20190719052316 87 157 2.0 4.0 0.00 0.00 0.00 62 1008.1
20190719051316 87 202 2.0 3.0 0.00 0.00 0.00 61 1008.1
20190719050317 88 180 2.0 4.0 0.00 0.00 0.00 59 1008.0
20190719045316 88 157 1.0 2.0 0.00 0.00 0.00 56 1008.1
20190719044318 89 180 1.0 2.0 0.00 0.00 0.00 55 1008.0
20190719043316 89 202 2.0 3.0 0.00 0.00 0.00 54 1007.9
20190719042316 89 157 2.0 3.0 0.00 0.00 0.00 54 1007.9
20190719041316 90 180 1.0 2.0 0.00 0.00 0.00 52 1007.7
20190719040316 90 202 4.0 6.0 0.00 0.00 0.00 50 1007.7
20190719035317 91 180 4.0 7.0 0.00 0.00 0.00 49 1007.3
20190719034316 91 180 4.0 5.0 0.00 0.00 0.00 49 1007.2
20190719033316 91 202 4.0 5.0 0.00 0.00 0.00 48 1006.9
20190719032316 92 225 4.0 6.0 0.00 0.00 0.00 46 1006.8
20190719031316 92 202 5.0 6.0 0.00 0.00 0.00 45 1006.7
20190719030316 93 202 5.0 7.0 0.00 0.00 0.00 44 1006.7
20190719025317 93 202 5.0 6.0 0.00 0.00 0.00 43 1006.6
20190719024317 94 225 6.0 7.0 0.00 0.00 0.00 42 1006.6
20190719023316 94 225 5.0 7.0 0.00 0.00 0.00 41 1006.6
20190719022321 95 202 5.0 7.0 0.00 0.00 0.00 40 1006.6
20190719021316 95 202 7.0 10.0 0.00 0.00 0.00 39 1006.4
20190719020316 96 225 7.0 9.0 0.00 0.00 0.00 37 1006.6
20190719015316 96 225 7.0 12.0 0.00 0.00 0.00 37 1006.6
20190719014316 97 225 10.0 14.0 0.00 0.00 0.00 37 1006.5
20190719013316 98 202 8.0 12.0 0.00 0.00 0.00 36 1006.5
20190719012316 98 180 6.0 8.0 0.00 0.00 0.00 35 1006.4